Time;durP1;ratioP1;P1;durP2;ratioP2;P2;SDS_P1;SDS_P2;PMS_P1;PMS_P2;Temp;Humidity;BMP_temperature;BMP_pressure;BME280_temperature;BME280_humidity;BME280_pressure;Samples;Min_cycle;Max_cycle;Signal;HPM_P1;HPM_P2
2022/05/08 00:02:16;;;;;;;3.55;2.38;;;;;;;22.38;49.68;99779.28;4961712;29;20038;-86
2022/05/08 00:04:41;;;;;;;3.80;3.00;;;;;;;22.37;49.82;99777.56;4960586;29;20605;-87
2022/05/08 00:07:07;;;;;;;3.95;2.70;;;;;;;22.36;49.78;99771.38;4960067;29;20114;-85
2022/05/08 00:09:34;;;;;;;4.43;2.83;;;;;;;22.36;49.77;99775.84;4960284;29;20074;-85
2022/05/08 00:11:59;;;;;;;4.25;2.72;;;;;;;22.36;49.58;99775.84;4959861;29;20118;-86
2022/05/08 00:14:25;;;;;;;4.80;2.92;;;;;;;22.34;49.68;99772.44;4959752;29;20058;-85
2022/05/08 00:16:50;;;;;;;4.70;2.78;;;;;;;22.34;49.42;99761.78;4959833;29;20054;-85
2022/05/08 00:19:16;;;;;;;3.63;2.28;;;;;;;22.33;49.49;99762.75;4959528;29;20114;-85
2022/05/08 00:21:42;;;;;;;4.03;2.50;;;;;;;22.32;49.63;99763.69;4959605;29;20381;-85
2022/05/08 00:24:07;;;;;;;4.15;2.75;;;;;;;22.31;49.72;99761.97;4959589;29;20092;-85
2022/05/08 00:26:33;;;;;;;4.65;2.75;;;;;;;22.29;49.70;99759.44;4959451;29;20031;-86
2022/05/08 00:28:59;;;;;;;4.53;2.80;;;;;;;22.29;49.89;99753.25;4959423;29;20023;-85
2022/05/08 00:31:24;;;;;;;4.68;3.05;;;;;;;22.29;49.54;99758.56;4959308;29;20414;-86
2022/05/08 00:33:50;;;;;;;4.35;2.72;;;;;;;22.26;49.88;99755.16;4959762;29;20015;-84
2022/05/08 00:36:16;;;;;;;5.05;2.65;;;;;;;22.26;49.63;99755.16;4959538;29;20050;-86
2022/05/08 00:38:42;;;;;;;4.43;2.88;;;;;;;22.25;49.60;99748.13;4958517;29;20105;-87
2022/05/08 00:41:08;;;;;;;3.80;2.67;;;;;;;22.25;49.60;99753.44;4958049;29;20368;-87
2022/05/08 00:43:41;;;;;;;4.80;2.60;;;;;;;22.24;49.68;99756.19;4958816;29;20047;-86
2022/05/08 00:46:11;;;;;;;4.28;2.83;;;;;;;22.22;49.80;99758.94;4959054;29;20034;-86
2022/05/08 00:48:37;;;;;;;3.90;2.53;;;;;;;22.21;49.62;99757.25;4957919;29;20034;-85
2022/05/08 00:51:12;;;;;;;3.60;2.40;;;;;;;22.22;49.76;99755.41;4958096;29;20027;-85
2022/05/08 00:53:45;;;;;;;5.60;2.90;;;;;;;22.20;49.68;99754.66;4957818;29;20035;-86
2022/05/08 00:56:12;;;;;;;4.43;2.70;;;;;;;22.20;49.79;99754.66;4958004;29;20024;-85
2022/05/08 00:58:39;;;;;;;4.32;2.63;;;;;;;22.18;49.75;99744.13;4958205;29;20023;-85
2022/05/08 01:01:05;;;;;;;3.95;2.45;;;;;;;22.18;49.65;99745.94;4958182;28;20062;-84
2022/05/08 01:03:31;;;;;;;4.18;2.63;;;;;;;22.17;49.92;99747.75;4958362;29;20034;-85
2022/05/08 01:05:59;;;;;;;3.92;2.75;;;;;;;22.17;49.64;99745.06;4960327;29;20031;-85
2022/05/08 01:08:25;;;;;;;4.07;2.70;;;;;;;22.15;49.93;99741.66;4958783;29;20046;-84
2022/05/08 01:10:54;;;;;;;4.28;2.78;;;;;;;22.15;49.77;99741.66;4959036;29;20105;-84
2022/05/08 01:13:20;;;;;;;4.15;2.45;;;;;;;22.14;49.76;99739.97;4959228;29;20031;-85
2022/05/08 01:15:47;;;;;;;4.32;2.83;;;;;;;22.12;49.68;99742.72;4959735;29;20476;-85
2022/05/08 01:18:14;;;;;;;3.50;2.42;;;;;;;22.12;49.69;99741.84;4959949;29;20039;-86
2022/05/08 01:20:42;;;;;;;4.75;2.90;;;;;;;22.11;49.76;99740.13;4959930;29;20374;-85
2022/05/08 01:23:08;;;;;;;3.90;2.72;;;;;;;22.08;49.81;99743.00;4960404;29;20026;-85
2022/05/08 01:25:35;;;;;;;4.90;2.72;;;;;;;22.08;49.61;99745.66;4960556;29;20409;-86
2022/05/08 01:28:04;;;;;;;4.10;2.50;;;;;;;22.07;49.76;99738.63;4959740;29;20101;-85
2022/05/08 01:30:31;;;;;;;4.25;2.90;;;;;;;22.06;49.96;99740.44;4959772;29;20031;-85
2022/05/08 01:32:58;;;;;;;4.95;2.88;;;;;;;22.06;49.72;99742.22;4959819;29;20058;-87
2022/05/08 01:35:24;;;;;;;3.58;2.40;;;;;;;22.06;49.77;99742.22;4959564;29;20027;-85
2022/05/08 01:37:50;;;;;;;4.10;2.40;;;;;;;22.05;49.75;99752.03;4960585;29;20023;-86
2022/05/08 01:40:17;;;;;;;3.03;2.30;;;;;;;22.04;49.72;99749.44;4960909;29;20433;-86
2022/05/08 01:42:44;;;;;;;4.50;3.03;;;;;;;22.04;49.65;99744.13;4961039;28;20046;-85
2022/05/08 01:45:13;;;;;;;4.35;2.90;;;;;;;22.02;49.87;99735.41;4961863;29;20087;-85
2022/05/08 01:50:24;;;;;;;4.22;2.35;;;;;;;22.02;49.82;99732.75;4963582;29;20054;-86
2022/05/08 01:52:50;;;;;;;4.38;2.67;;;;;;;22.03;49.80;99739.78;4962462;29;20381;-86
2022/05/08 01:55:16;;;;;;;3.63;2.50;;;;;;;22.02;49.62;99730.09;4962365;29;20031;-87
2022/05/08 01:57:42;;;;;;;3.20;2.25;;;;;;;22.00;49.71;99732.84;4962521;29;20118;-87
2022/05/08 02:00:08;;;;;;;4.75;2.35;;;;;;;22.00;49.82;99732.84;4963866;29;20031;-87
2022/05/08 02:02:34;;;;;;;3.72;2.70;;;;;;;21.99;49.74;99731.97;4964072;29;20123;-87
2022/05/08 02:05:02;;;;;;;3.65;2.30;;;;;;;21.98;49.75;99735.59;4962994;29;20457;-86
2022/05/08 02:07:28;;;;;;;4.13;2.53;;;;;;;21.97;49.92;99733.88;4960927;29;20027;-88
2022/05/08 02:09:53;;;;;;;3.75;2.17;;;;;;;21.97;49.69;99739.19;4956809;29;20042;-87
2022/05/08 02:12:19;;;;;;;4.05;2.50;;;;;;;21.97;49.88;99727.69;4959417;28;20035;-86
2022/05/08 02:14:45;;;;;;;3.75;2.40;;;;;;;21.95;49.87;99727.81;4964451;29;20027;-87
2022/05/08 02:17:12;;;;;;;4.35;2.50;;;;;;;21.96;49.69;99736.63;4968258;29;20023;-86
2022/05/08 02:19:37;;;;;;;4.43;2.38;;;;;;;21.95;49.85;99735.78;4967161;29;20035;-87
2022/05/08 02:22:04;;;;;;;4.35;2.53;;;;;;;21.95;49.85;99727.81;4965248;29;20118;-87
2022/05/08 02:24:29;;;;;;;4.60;2.65;;;;;;;21.95;49.59;99735.78;4961015;29;20030;-85
2022/05/08 02:26:55;;;;;;;3.60;2.17;;;;;;;21.93;49.77;99732.34;4957044;29;20032;-84
2022/05/08 02:29:21;;;;;;;4.82;2.60;;;;;;;21.91;49.90;99736.91;4957328;29;20093;-86
2022/05/08 02:31:46;;;;;;;5.55;2.72;;;;;;;21.92;49.63;99738.63;4957102;29;20059;-85
2022/05/08 02:34:12;;;;;;;3.08;2.10;;;;;;;21.91;49.81;99739.56;4957238;29;20062;-86
2022/05/08 02:36:38;;;;;;;3.60;2.38;;;;;;;21.91;49.82;99733.38;4957448;29;20042;-85
2022/05/08 02:39:03;;;;;;;4.28;2.60;;;;;;;21.90;49.85;99743.19;4957255;29;20384;-85
2022/05/08 02:41:29;;;;;;;4.00;2.63;;;;;;;21.89;49.76;99730.81;4957544;29;20429;-85
2022/05/08 02:43:54;;;;;;;3.40;2.33;;;;;;;21.88;49.85;99739.75;4956459;29;20054;-85
2022/05/08 02:46:20;;;;;;;3.88;2.50;;;;;;;21.87;49.94;99735.38;4957099;29;20074;-86
2022/05/08 02:48:45;;;;;;;3.55;2.33;;;;;;;21.86;49.70;99742.50;4957141;29;20031;-86
2022/05/08 02:51:11;;;;;;;3.35;2.35;;;;;;;21.85;49.83;99735.47;4958566;29;20035;-86
2022/05/08 02:53:36;;;;;;;4.20;2.65;;;;;;;21.86;49.71;99731.03;4957870;29;20114;-86
2022/05/08 02:58:46;;;;;;;4.28;2.30;;;;;;;21.85;49.75;99737.28;4958875;29;20042;-85
2022/05/08 03:01:12;;;;;;;3.85;2.58;;;;;;;21.83;49.98;99741.81;4957817;29;20035;-86
2022/05/08 03:03:38;;;;;;;3.70;2.42;;;;;;;21.83;49.79;99736.50;4957853;29;20388;-86
2022/05/08 03:06:05;;;;;;;3.70;2.42;;;;;;;21.82;49.90;99735.66;4957695;29;20085;-85
2022/05/08 03:08:30;;;;;;;3.35;2.30;;;;;;;21.82;49.71;99740.09;4958368;29;20027;-84
2022/05/08 03:13:41;;;;;;;3.63;2.42;;;;;;;21.81;49.94;99736.63;4958590;29;20465;-85
2022/05/08 03:16:09;;;;;;;3.85;2.53;;;;;;;21.81;49.73;99733.09;4958279;29;20031;-85
2022/05/08 03:18:36;;;;;;;3.90;2.33;;;;;;;21.80;49.81;99731.38;4957449;29;20031;-85
2022/05/08 03:21:02;;;;;;;4.03;2.45;;;;;;;21.79;49.98;99735.84;4957236;29;20095;-86
2022/05/08 03:23:28;;;;;;;4.00;2.70;;;;;;;21.78;50.01;99733.28;4958027;28;20421;-86
2022/05/08 03:25:54;;;;;;;3.70;2.50;;;;;;;21.76;50.09;99729.84;4960834;29;20027;-85
2022/05/08 03:28:19;;;;;;;3.75;2.30;;;;;;;21.77;49.82;99728.91;4960871;29;20038;-86
2022/05/08 03:30:45;;;;;;;3.72;2.47;;;;;;;21.77;49.88;99742.19;4961753;29;20067;-86
2022/05/08 03:33:12;;;;;;;4.88;2.15;;;;;;;21.76;49.87;99743.13;4961924;29;20027;-85
2022/05/08 03:35:38;;;;;;;3.35;2.33;;;;;;;21.75;49.84;99738.78;4961981;29;20031;-86
2022/05/08 03:38:05;;;;;;;4.05;2.38;;;;;;;21.73;49.79;99745.03;4960218;29;20373;-87
2022/05/08 03:40:32;;;;;;;4.35;2.47;;;;;;;21.75;49.99;99744.09;4960545;29;20121;-87
2022/05/08 03:42:58;;;;;;;3.65;2.17;;;;;;;21.72;49.67;99746.00;4959087;29;20039;-87
2022/05/08 03:45:25;;;;;;;3.88;2.50;;;;;;;21.71;49.80;99741.59;4959348;29;20032;-86
2022/05/08 03:47:52;;;;;;;3.92;2.33;;;;;;;21.70;49.99;99739.91;4959603;29;20027;-86
2022/05/08 03:50:21;;;;;;;3.47;2.35;;;;;;;21.70;50.01;99739.91;4959797;29;20027;-85
2022/05/08 03:52:47;;;;;;;4.25;2.60;;;;;;;21.70;49.75;99737.25;4959579;29;20034;-86
2022/05/08 03:55:17;;;;;;;4.00;2.55;;;;;;;21.69;49.86;99739.97;4959684;29;20122;-85
2022/05/08 03:57:45;;;;;;;5.07;2.97;;;;;;;21.71;49.98;99738.09;4959907;29;20094;-85
2022/05/08 04:00:12;;;;;;;3.67;2.47;;;;;;;21.70;49.93;99736.41;4960102;29;20398;-84
2022/05/08 04:02:38;;;;;;;3.00;2.10;;;;;;;21.67;49.75;99732.09;4962247;29;20027;-85
2022/05/08 04:05:05;;;;;;;4.22;2.42;;;;;;;21.67;49.87;99725.91;4963784;29;20030;-86
2022/05/08 04:07:31;;;;;;;4.18;2.63;;;;;;;21.66;49.80;99725.09;4964405;29;20023;-86
2022/05/08 04:09:57;;;;;;;4.93;2.70;;;;;;;21.64;49.70;99726.94;4964086;29;20023;-86
2022/05/08 04:12:24;;;;;;;4.40;2.90;;;;;;;21.66;49.86;99730.41;4963945;29;20023;-87
2022/05/08 04:14:50;;;;;;;4.65;2.88;;;;;;;21.63;50.00;99735.88;4964382;29;20110;-88
2022/05/08 04:17:16;;;;;;;3.92;2.50;;;;;;;21.62;50.09;99734.16;4965570;29;20047;-85
2022/05/08 04:19:42;;;;;;;3.47;2.40;;;;;;;21.62;49.89;99739.47;4964777;29;20055;-85
2022/05/08 04:24:52;;;;;;;3.50;2.55;;;;;;;21.62;49.88;99739.47;4966667;29;20049;-88
2022/05/08 04:27:18;;;;;;;3.65;2.50;;;;;;;21.61;50.04;99740.44;4965683;29;20051;-86
2022/05/08 04:29:43;;;;;;;3.97;2.70;;;;;;;21.61;49.98;99745.75;4965829;29;20031;-87
2022/05/08 04:32:09;;;;;;;3.97;2.55;;;;;;;21.60;49.81;99741.38;4966021;29;20059;-86
2022/05/08 04:34:34;;;;;;;4.20;2.78;;;;;;;21.58;50.12;99744.13;4966185;28;20038;-86
2022/05/08 04:37:00;;;;;;;4.05;2.72;;;;;;;21.59;49.99;99744.97;4968063;29;20034;-88
2022/05/08 04:39:25;;;;;;;3.58;2.42;;;;;;;21.57;50.13;99747.72;4971058;29;20047;-88
2022/05/08 04:41:52;;;;;;;4.03;2.50;;;;;;;21.56;49.88;99745.16;4971150;29;20151;-88
2022/05/08 04:44:18;;;;;;;3.85;2.58;;;;;;;21.57;49.96;99752.16;4970252;29;20058;-88
2022/05/08 04:46:43;;;;;;;4.38;2.83;;;;;;;21.56;50.06;99750.47;4971019;29;20054;-88
2022/05/08 04:49:10;;;;;;;4.45;2.55;;;;;;;21.56;49.89;99755.78;4969184;29;20031;-86
2022/05/08 04:51:36;;;;;;;3.65;2.63;;;;;;;21.54;49.98;99753.19;4961349;29;20027;-86
2022/05/08 04:54:02;;;;;;;3.80;2.50;;;;;;;21.54;50.17;99753.19;4960880;29;20034;-85
2022/05/08 04:56:29;;;;;;;5.00;2.92;;;;;;;21.53;49.85;99756.81;4961542;29;20361;-85
2022/05/08 04:58:54;;;;;;;3.88;2.63;;;;;;;21.52;49.96;99749.78;4961639;29;20038;-84
2022/05/08 05:01:21;;;;;;;3.88;2.60;;;;;;;21.55;49.80;99743.44;4959799;29;20031;-85
2022/05/08 05:03:47;;;;;;;4.05;2.75;;;;;;;21.53;50.09;99750.63;4960869;29;20122;-86
2022/05/08 05:06:13;;;;;;;4.32;2.70;;;;;;;21.53;50.18;99745.31;4960639;29;20094;-87
2022/05/08 05:08:39;;;;;;;3.67;2.53;;;;;;;21.52;49.93;99743.63;4958233;29;20409;-86
2022/05/08 05:11:08;;;;;;;3.75;2.50;;;;;;;21.52;50.09;99743.63;4957602;29;20027;-86
2022/05/08 05:13:38;;;;;;;4.05;2.35;;;;;;;21.51;50.04;99752.53;4960137;29;20019;-86
2022/05/08 05:16:07;;;;;;;3.80;2.55;;;;;;;21.51;50.07;99749.88;4958143;29;20027;-85
2022/05/08 05:18:33;;;;;;;4.57;2.58;;;;;;;21.52;50.10;99754.22;4958757;29;20472;-85
2022/05/08 05:20:58;;;;;;;4.20;2.75;;;;;;;21.50;49.92;99756.13;4959123;29;20082;-84
2022/05/08 05:23:24;;;;;;;3.42;2.40;;;;;;;21.52;50.08;99754.22;4959492;29;20023;-85
2022/05/08 05:25:50;;;;;;;3.78;2.38;;;;;;;21.52;50.11;99754.22;4959620;29;20117;-86
2022/05/08 05:28:17;;;;;;;5.07;2.95;;;;;;;21.52;50.02;99762.19;4959865;29;20031;-86
2022/05/08 05:30:42;;;;;;;3.83;2.63;;;;;;;21.51;50.00;99768.47;4960253;29;20035;-87
2022/05/08 05:33:10;;;;;;;4.00;2.70;;;;;;;21.51;49.87;99765.81;4961913;29;20035;-87
2022/05/08 05:35:37;;;;;;;3.80;2.70;;;;;;;21.51;49.84;99765.81;4959492;29;20409;-85
2022/05/08 05:38:03;;;;;;;4.65;2.60;;;;;;;21.50;50.20;99758.78;4958737;29;20031;-85
2022/05/08 05:40:29;;;;;;;4.50;3.00;;;;;;;21.50;49.88;99756.13;4958729;29;20376;-85
2022/05/08 05:42:54;;;;;;;3.75;3.00;;;;;;;21.50;50.01;99761.44;4958750;29;20041;-85
2022/05/08 05:45:20;;;;;;;4.25;2.83;;;;;;;21.51;50.09;99760.50;4958235;29;20023;-85
2022/05/08 05:47:54;;;;;;;4.80;3.20;;;;;;;21.50;49.89;99754.31;4960722;28;20027;-85
2022/05/08 05:50:24;;;;;;;4.47;3.00;;;;;;;21.48;50.04;99758.00;4960850;29;20476;-86
2022/05/08 05:52:51;;;;;;;4.15;2.67;;;;;;;21.51;49.99;99768.47;4960902;29;20031;-86
2022/05/08 05:55:17;;;;;;;4.55;3.10;;;;;;;21.51;49.70;99774.63;4960427;29;20066;-85
2022/05/08 05:57:43;;;;;;;4.35;2.85;;;;;;;21.50;50.03;99791.50;4959685;29;20480;-86
2022/05/08 06:00:14;;;;;;;4.13;2.83;;;;;;;21.50;50.08;99788.00;4959497;29;20027;-85
2022/05/08 06:02:43;;;;;;;4.90;3.10;;;;;;;21.50;50.06;99798.63;4959093;29;20351;-86
2022/05/08 06:05:13;;;;;;;5.45;3.10;;;;;;;21.49;50.11;99796.91;4959267;29;20207;-84
2022/05/08 06:07:39;;;;;;;4.55;2.92;;;;;;;21.50;50.07;99798.63;4959611;29;20058;-85
2022/05/08 06:10:08;;;;;;;3.97;2.67;;;;;;;21.49;50.07;99796.91;4960654;29;20388;-85
2022/05/08 06:12:33;;;;;;;5.43;2.97;;;;;;;21.49;50.33;99794.25;4959834;29;20085;-86
2022/05/08 06:14:59;;;;;;;4.25;2.97;;;;;;;21.50;49.99;99794.16;4958744;29;20396;-85
2022/05/08 06:17:25;;;;;;;4.75;2.88;;;;;;;21.49;50.11;99791.59;4959170;29;20090;-86
2022/05/08 06:19:51;;;;;;;3.90;2.88;;;;;;;21.49;49.97;99792.44;4960844;29;20030;-85
2022/05/08 06:22:16;;;;;;;4.80;3.08;;;;;;;21.51;49.92;99805.63;4958657;29;20039;-85
2022/05/08 06:24:42;;;;;;;3.88;2.75;;;;;;;21.51;49.98;99795.00;4959781;29;20045;-85
2022/05/08 06:27:08;;;;;;;4.20;2.80;;;;;;;21.50;50.12;99803.94;4960934;29;20023;-87
2022/05/08 06:29:34;;;;;;;4.78;3.00;;;;;;;21.51;50.17;99805.63;4960907;29;20038;-86
2022/05/08 06:32:00;;;;;;;4.13;2.88;;;;;;;21.53;49.77;99809.03;4963032;29;20019;-86
2022/05/08 06:34:27;;;;;;;5.68;3.38;;;;;;;21.54;49.78;99816.94;4961780;28;20031;-87
2022/05/08 06:36:53;;;;;;;4.32;3.00;;;;;;;21.55;49.88;99817.78;4957633;29;20030;-87
2022/05/08 06:39:19;;;;;;;4.45;2.67;;;;;;;21.56;50.06;99819.50;4956592;29;20027;-86
2022/05/08 06:41:45;;;;;;;4.57;2.90;;;;;;;21.56;49.64;99819.50;4956865;29;20111;-85
2022/05/08 06:44:10;;;;;;;3.97;2.70;;;;;;;21.58;49.59;99822.91;4958140;29;20500;-86
2022/05/08 06:46:36;;;;;;;4.45;3.10;;;;;;;21.60;49.71;99821.88;4958032;29;20070;-86
2022/05/08 06:49:09;;;;;;;4.22;3.20;;;;;;;21.59;49.88;99825.47;4962112;29;20034;-86
2022/05/08 06:51:35;;;;;;;4.78;3.13;;;;;;;21.59;49.55;99819.31;4963552;29;20446;-87
2022/05/08 06:54:01;;;;;;;4.55;3.00;;;;;;;21.61;49.73;99833.38;4964099;29;20409;-85
2022/05/08 06:56:26;;;;;;;4.43;3.20;;;;;;;21.59;49.83;99825.47;4965432;29;20055;-87
2022/05/08 07:01:42;;;;;;;4.28;3.10;;;;;;;21.62;49.85;99827.09;4974058;29;20034;-88
2022/05/08 07:04:12;;;;;;;4.40;2.90;;;;;;;21.62;49.75;99829.75;4973327;29;20031;-88
2022/05/08 07:06:39;;;;;;;4.88;3.22;;;;;;;21.63;49.51;99836.78;4973503;29;20030;-88
2022/05/08 07:09:06;;;;;;;7.10;3.65;;;;;;;21.64;49.62;99838.50;4972976;29;20023;-88
2022/05/08 07:11:33;;;;;;;5.10;2.92;;;;;;;21.62;49.65;99837.72;4974437;29;20027;-87
2022/05/08 07:13:59;;;;;;;4.10;2.65;;;;;;;21.65;49.71;99826.91;4972859;29;20058;-88
2022/05/08 07:16:25;;;;;;;5.05;3.20;;;;;;;21.64;49.79;99833.19;4972381;29;20413;-86
2022/05/08 07:18:51;;;;;;;4.53;2.85;;;;;;;21.66;49.94;99826.00;4962247;28;20511;-85
2022/05/08 07:21:18;;;;;;;5.40;3.03;;;;;;;21.67;49.66;99833.00;4963479;29;20026;-87
2022/05/08 07:23:43;;;;;;;3.75;2.80;;;;;;;21.68;49.66;99842.69;4962884;29;20040;-86
2022/05/08 07:26:09;;;;;;;4.05;2.55;;;;;;;21.68;49.87;99834.72;4964119;29;20039;-86
2022/05/08 07:28:34;;;;;;;4.40;2.70;;;;;;;21.70;49.71;99843.47;4961482;29;20024;-86
2022/05/08 07:31:02;;;;;;;5.18;3.15;;;;;;;21.68;49.80;99845.34;4961769;29;20091;-85
2022/05/08 07:33:29;;;;;;;4.13;2.80;;;;;;;21.69;49.92;99849.69;4964642;29;20429;-85
2022/05/08 07:38:42;;;;;;;4.20;2.70;;;;;;;21.70;49.87;99847.94;4965396;29;20042;-85
2022/05/08 07:41:12;;;;;;;4.00;2.70;;;;;;;21.69;49.86;99844.41;4963184;29;20042;-86
2022/05/08 07:43:39;;;;;;;3.72;2.80;;;;;;;21.71;49.85;99847.84;4962571;29;20084;-86
2022/05/08 07:46:05;;;;;;;5.07;2.78;;;;;;;21.73;49.67;99853.94;4963157;29;20027;-84
2022/05/08 07:48:31;;;;;;;3.97;2.80;;;;;;;21.75;49.91;99856.50;4963286;29;20042;-86
2022/05/08 07:50:59;;;;;;;4.35;3.00;;;;;;;21.78;49.82;99847.50;4963507;29;20065;-85
2022/05/08 07:53:26;;;;;;;5.10;3.40;;;;;;;21.79;49.61;99846.56;4964446;29;20424;-84
2022/05/08 07:55:52;;;;;;;4.20;2.80;;;;;;;21.79;49.52;99846.56;4963451;29;20042;-87
2022/05/08 07:58:19;;;;;;;4.00;2.90;;;;;;;21.80;49.71;99849.09;4964849;29;20023;-86
2022/05/08 08:00:45;;;;;;;4.50;3.20;;;;;;;21.81;49.42;99847.31;4963805;29;20054;-86
2022/05/08 08:03:10;;;;;;;4.30;2.88;;;;;;;21.83;49.37;99848.06;4962750;29;20509;-87
2022/05/08 08:05:36;;;;;;;4.25;3.08;;;;;;;21.84;49.57;99849.81;4958754;29;20031;-86
2022/05/08 08:08:02;;;;;;;4.13;2.80;;;;;;;21.85;49.71;99840.88;4961599;29;20098;-87
2022/05/08 08:10:29;;;;;;;4.15;2.80;;;;;;;21.86;49.48;99845.25;4959056;28;20038;-86
2022/05/08 08:12:56;;;;;;;5.38;2.95;;;;;;;21.88;49.59;99846.00;4959200;29;20034;-86
2022/05/08 08:15:22;;;;;;;4.25;2.83;;;;;;;21.89;49.63;99847.72;4959116;29;20042;-86
2022/05/08 08:17:48;;;;;;;4.90;3.20;;;;;;;21.90;49.63;99843.25;4959091;29;20365;-85
2022/05/08 08:20:14;;;;;;;5.15;3.47;;;;;;;21.91;49.70;99848.50;4959395;29;20521;-85
2022/05/08 08:22:40;;;;;;;4.45;3.35;;;;;;;21.93;49.56;99856.38;4959672;29;20035;-85
2022/05/08 08:25:05;;;;;;;5.05;3.00;;;;;;;21.93;49.51;99854.56;4959194;29;20117;-86
2022/05/08 08:27:31;;;;;;;4.50;2.80;;;;;;;21.95;49.62;99855.34;4959279;29;20031;-86
2022/05/08 08:29:57;;;;;;;5.30;3.38;;;;;;;21.97;49.56;99850.78;4959826;29;20027;-85
2022/05/08 08:32:22;;;;;;;5.10;2.95;;;;;;;21.98;49.35;99863.13;4959414;29;20094;-86
2022/05/08 08:34:48;;;;;;;4.50;3.03;;;;;;;22.00;49.43;99855.91;4959897;29;20019;-85
2022/05/08 08:37:14;;;;;;;4.78;3.20;;;;;;;22.02;49.52;99858.47;4959914;29;20103;-85
2022/05/08 08:39:40;;;;;;;4.90;3.38;;;;;;;22.04;49.37;99850.41;4959553;29;20059;-84
2022/05/08 08:42:24;;;;;;;4.35;2.90;;;;;;;22.06;49.33;99856.50;4961209;29;20042;-85
2022/05/08 08:47:45;;;;;;;5.07;2.95;;;;;;;22.10;49.47;99852.72;4961820;29;20143;-86
2022/05/08 08:50:12;;;;;;;4.18;2.75;;;;;;;22.11;49.22;99857.94;4960903;29;20050;-85
2022/05/08 08:52:38;;;;;;;3.72;2.75;;;;;;;22.12;49.33;99856.13;4961034;29;20098;-87
2022/05/08 08:55:08;;;;;;;4.18;2.95;;;;;;;22.13;49.14;99844.56;4960668;29;20358;-85
2022/05/08 08:57:34;;;;;;;4.15;3.20;;;;;;;22.15;49.38;99853.28;4961525;29;20019;-85
2022/05/08 09:00:00;;;;;;;4.03;2.72;;;;;;;22.18;49.17;99855.75;4963041;29;20031;-85
2022/05/08 09:02:25;;;;;;;5.28;3.40;;;;;;;22.19;49.24;99854.84;4962447;29;20038;-87
2022/05/08 09:04:51;;;;;;;4.82;3.00;;;;;;;22.20;49.22;99853.88;4962376;29;20066;-87
2022/05/08 09:07:39;;;;;;;4.82;2.80;;;;;;;22.22;49.33;99848.44;4962343;29;20039;-85
2022/05/08 09:10:22;;;;;;;4.43;3.20;;;;;;;22.23;49.03;99847.53;4962248;29;20038;-86
2022/05/08 09:12:54;;;;;;;4.22;3.15;;;;;;;22.23;49.17;99845.69;4978960;28;20471;-85
2022/05/08 09:15:29;;;;;;;4.13;2.83;;;;;;;22.24;49.15;99847.41;4962943;29;20027;-87
2022/05/08 09:17:58;;;;;;;3.70;2.70;;;;;;;22.27;49.17;99841.91;4966746;29;20031;-86
2022/05/08 09:20:32;;;;;;;4.85;3.00;;;;;;;22.29;49.10;99844.50;4966462;29;20470;-87
2022/05/08 09:23:14;;;;;;;4.00;3.00;;;;;;;22.31;48.92;99842.59;4966974;29;20035;-88
2022/05/08 09:25:45;;;;;;;4.22;2.67;;;;;;;22.33;49.03;99845.16;4967908;29;20066;-87
2022/05/08 09:28:16;;;;;;;4.88;3.42;;;;;;;22.34;49.05;99844.22;4968264;29;20099;-87
2022/05/08 09:31:11;;;;;;;4.38;3.25;;;;;;;22.38;48.93;99848.41;4969344;29;20042;-87
2022/05/08 09:34:01;;;;;;;4.85;3.40;;;;;;;22.39;48.90;99860.75;4957849;29;20038;-88
2022/05/08 09:36:27;;;;;;;4.28;2.75;;;;;;;22.42;48.98;99854.38;4967273;29;20476;-88
2022/05/08 09:38:55;;;;;;;4.28;2.97;;;;;;;22.43;48.90;99850.75;4968508;29;20035;-88
2022/05/08 09:41:28;;;;;;;3.75;2.83;;;;;;;22.43;49.00;99851.63;4969171;29;20042;-88
2022/05/08 09:44:08;;;;;;;4.00;2.65;;;;;;;22.47;49.08;99849.63;4961983;29;20102;-86
2022/05/08 09:46:43;;;;;;;3.75;2.58;;;;;;;22.48;48.94;99849.53;4956768;29;20050;-85
2022/05/08 09:49:17;;;;;;;4.28;2.90;;;;;;;22.51;48.73;99843.16;4959601;29;20031;-86
2022/05/08 09:51:43;;;;;;;4.07;2.80;;;;;;;22.52;49.04;99843.09;4958894;29;20050;-85
2022/05/08 09:54:09;;;;;;;3.83;2.63;;;;;;;22.52;49.02;99843.09;4958906;29;20042;-83
2022/05/08 09:56:36;;;;;;;3.72;2.33;;;;;;;22.56;48.91;99846.44;4957963;29;20066;-86
2022/05/08 09:59:06;;;;;;;4.35;2.95;;;;;;;22.57;48.89;99842.81;4957914;29;20070;-85
2022/05/08 10:01:32;;;;;;;4.63;2.83;;;;;;;22.58;48.66;99843.69;4958038;29;20441;-85
2022/05/08 10:03:58;;;;;;;4.93;2.90;;;;;;;22.60;48.67;99836.44;4964150;29;20031;-86
2022/05/08 10:06:24;;;;;;;4.30;2.55;;;;;;;22.60;48.80;99839.13;4961488;29;20412;-85
2022/05/08 10:08:51;;;;;;;5.82;2.78;;;;;;;22.63;48.45;99836.28;4959041;29;20096;-85
2022/05/08 10:14:11;;;;;;;3.78;2.67;;;;;;;22.65;48.62;99829.91;4958983;29;20042;-85
2022/05/08 10:17:06;;;;;;;3.88;2.70;;;;;;;22.67;48.66;99833.31;4957226;29;20461;-84
2022/05/08 10:19:32;;;;;;;4.07;2.50;;;;;;;22.70;48.72;99834.94;4945676;29;20126;-84
2022/05/08 10:22:02;;;;;;;3.63;2.75;;;;;;;22.71;48.73;99836.63;4957653;29;20062;-86
2022/05/08 10:24:47;;;;;;;4.10;2.63;;;;;;;22.73;48.57;99836.56;4958987;29;20035;-85
2022/05/08 10:27:17;;;;;;;3.67;2.78;;;;;;;22.74;48.74;99839.13;4959779;29;20118;-85
2022/05/08 10:29:52;;;;;;;3.67;2.60;;;;;;;22.75;48.52;99835.50;4959499;29;20425;-86
2022/05/08 10:32:33;;;;;;;4.55;3.00;;;;;;;22.77;48.43;99838.91;4958278;28;20031;-86
2022/05/08 10:35:09;;;;;;;3.75;2.33;;;;;;;22.79;48.63;99841.50;4958033;29;20512;-85
2022/05/08 10:37:36;;;;;;;3.65;2.65;;;;;;;22.80;48.70;99830.75;4959397;29;20086;-85
2022/05/08 10:40:02;;;;;;;4.80;3.00;;;;;;;22.82;48.55;99824.47;4959708;29;20031;-86
2022/05/08 10:42:28;;;;;;;4.13;2.58;;;;;;;22.84;48.57;99827.88;4959314;29;20050;-84
2022/05/08 10:44:55;;;;;;;4.22;2.78;;;;;;;22.84;48.58;99833.22;4957311;29;20404;-84
2022/05/08 10:47:33;;;;;;;3.53;2.80;;;;;;;22.86;48.55;99826.00;4957765;29;20127;-85
2022/05/08 10:50:02;;;;;;;4.15;2.78;;;;;;;22.88;48.69;99829.41;4957422;29;20051;-85
2022/05/08 10:52:30;;;;;;;4.20;2.97;;;;;;;22.90;48.63;99822.19;4957171;29;20105;-84
2022/05/08 10:55:09;;;;;;;3.58;2.60;;;;;;;22.91;48.53;99818.59;4957446;29;20055;-84
2022/05/08 10:57:36;;;;;;;3.42;2.42;;;;;;;22.92;48.58;99828.28;4956775;29;20037;-84
2022/05/08 11:00:07;;;;;;;3.60;2.47;;;;;;;22.94;48.50;99823.69;4957296;29;20031;-87
2022/05/08 11:02:52;;;;;;;4.50;2.75;;;;;;;22.96;48.52;99816.50;4956469;29;20378;-86
2022/05/08 11:05:20;;;;;;;3.58;2.58;;;;;;;22.97;48.75;99818.19;4955423;29;20461;-86
2022/05/08 11:08:10;;;;;;;3.72;2.70;;;;;;;22.99;48.38;99810.97;4955954;29;20039;-83
2022/05/08 11:10:41;;;;;;;4.60;3.00;;;;;;;22.99;48.95;99813.63;4956170;29;20042;-83
2022/05/08 11:13:21;;;;;;;4.32;2.83;;;;;;;23.00;48.76;99802.00;4956542;29;20028;-83
2022/05/08 11:15:49;;;;;;;3.83;2.58;;;;;;;23.02;48.72;99800.13;4956454;29;20046;-84
2022/05/08 11:18:16;;;;;;;4.03;2.53;;;;;;;23.03;48.99;99809.81;4957264;28;20070;-83
2022/05/08 11:20:48;;;;;;;3.45;2.55;;;;;;;23.05;48.91;99794.59;4957281;29;20485;-83
2022/05/08 11:23:18;;;;;;;3.80;2.67;;;;;;;23.06;48.83;99788.31;4957638;29;20050;-83
2022/05/08 11:25:50;;;;;;;3.85;2.35;;;;;;;23.08;48.99;99798.84;4957868;29;20450;-83
2022/05/08 11:28:17;;;;;;;4.32;2.90;;;;;;;23.09;48.93;99794.41;4959421;29;20031;-86
2022/05/08 11:30:46;;;;;;;4.63;2.75;;;;;;;23.12;48.93;99794.19;4958639;29;20130;-84
2022/05/08 11:36:08;;;;;;;3.90;2.67;;;;;;;23.15;48.83;99794.00;4961409;29;20042;-84
2022/05/08 11:39:09;;;;;;;5.40;2.88;;;;;;;23.17;49.02;99789.44;4961844;29;20061;-84
2022/05/08 11:41:37;;;;;;;3.80;2.42;;;;;;;23.19;48.95;99792.81;4961063;29;20029;-84
2022/05/08 11:44:24;;;;;;;3.55;2.40;;;;;;;23.20;48.82;99797.22;4962094;28;20051;-85
2022/05/08 11:46:55;;;;;;;3.53;2.42;;;;;;;23.20;49.13;99798.06;4964837;29;20043;-85
2022/05/08 11:49:29;;;;;;;3.88;2.63;;;;;;;23.23;49.20;99786.34;4965478;29;20031;-85
2022/05/08 11:52:06;;;;;;;3.72;2.40;;;;;;;23.25;48.86;99784.44;4965509;29;20362;-86
2022/05/08 11:54:38;;;;;;;4.00;2.67;;;;;;;23.26;49.18;99779.97;4965960;29;20031;-87
2022/05/08 11:57:21;;;;;;;3.75;2.60;;;;;;;23.28;48.97;99791.38;4966756;29;20030;-85
2022/05/08 12:00:14;;;;;;;3.95;2.80;;;;;;;23.31;48.93;99792.09;4967595;29;20042;-85
2022/05/08 12:02:46;;;;;;;4.38;2.83;;;;;;;23.32;49.09;99785.81;4965718;29;20040;-86
2022/05/08 12:05:25;;;;;;;3.83;2.55;;;;;;;23.33;49.10;99792.81;4963265;29;20063;-87